FRS111N EDDG-EDLW
Flight info
| Callsign | FRS111N |
|---|---|
| Flight time | N/A |
| Altitude | |
| Route | |
| Aircraft | COL4 |
Departure
| Time | 2026-04-21 10:04 |
|---|---|
| Airport | Münster Osnabrück Airport (EDDG) |
Arrival
| Time | N/A |
|---|---|
| Airport | Dortmund Airport (EDLW) |
| Time | Latitude | Longitude | Altitude | Speed | Heading |
|---|---|---|---|---|---|
| 2026-04-21 10:04 | 52.00719 | 7.66633 | 2272 ft | 203 kts | 188° |
| 2026-04-21 10:04 | 51.99347 | 7.66161 | 2274 ft | 201 kts | 187° |
| 2026-04-21 10:04 | 51.97983 | 7.65651 | 2276 ft | 201 kts | 189° |
| 2026-04-21 10:04 | 51.96629 | 7.65104 | 2262 ft | 199 kts | 188° |
| 2026-04-21 10:05 | 51.95278 | 7.64654 | 2265 ft | 199 kts | 187° |
| 2026-04-21 10:05 | 51.93929 | 7.64152 | 2267 ft | 198 kts | 190° |
| 2026-04-21 10:05 | 51.92578 | 7.63660 | 2270 ft | 200 kts | 188° |
| 2026-04-21 10:05 | 51.91234 | 7.63071 | 2267 ft | 199 kts | 187° |
| 2026-04-21 10:06 | 51.89866 | 7.62736 | 2258 ft | 198 kts | 184° |
| 2026-04-21 10:06 | 51.88492 | 7.62435 | 2270 ft | 201 kts | 183° |
| 2026-04-21 10:06 | 51.87098 | 7.62217 | 2257 ft | 200 kts | 180° |
| 2026-04-21 10:06 | 51.85729 | 7.62093 | 2265 ft | 193 kts | 175° |
| 2026-04-21 10:07 | 51.84380 | 7.61852 | 2258 ft | 195 kts | 182° |
| 2026-04-21 10:07 | 51.83029 | 7.61643 | 2262 ft | 195 kts | 181° |
| 2026-04-21 10:07 | 51.81668 | 7.61451 | 2258 ft | 196 kts | 180° |
| 2026-04-21 10:07 | 51.80305 | 7.61262 | 2258 ft | 198 kts | 180° |
| 2026-04-21 10:08 | 51.78937 | 7.61080 | 2268 ft | 197 kts | 180° |
| 2026-04-21 10:08 | 51.77572 | 7.60920 | 2273 ft | 198 kts | 181° |
| 2026-04-21 10:08 | 51.76201 | 7.60597 | 2249 ft | 201 kts | 193° |
| 2026-04-21 10:08 | 51.74891 | 7.59818 | 2255 ft | 202 kts | 199° |
| 2026-04-21 10:09 | 51.73603 | 7.58972 | 2286 ft | 199 kts | 199° |
| 2026-04-21 10:09 | 51.72305 | 7.58156 | 2298 ft | 200 kts | 196° |
| 2026-04-21 10:09 | 51.70984 | 7.57468 | 2284 ft | 198 kts | 194° |
| 2026-04-21 10:09 | 51.69657 | 7.56837 | 2287 ft | 198 kts | 192° |
| 2026-04-21 10:10 | 51.68344 | 7.56162 | 2284 ft | 198 kts | 195° |
| 2026-04-21 10:10 | 51.67057 | 7.55500 | 2282 ft | 196 kts | 194° |
| 2026-04-21 10:10 | 51.65742 | 7.54905 | 2281 ft | 196 kts | 191° |
| 2026-04-21 10:10 | 51.64419 | 7.54344 | 2295 ft | 198 kts | 190° |
| 2026-04-21 10:11 | 51.63064 | 7.53972 | 2281 ft | 196 kts | 182° |
| 2026-04-21 10:11 | 51.61707 | 7.53787 | 2290 ft | 197 kts | 180° |
| 2026-04-21 10:11 | 51.60343 | 7.53654 | 2284 ft | 195 kts | 179° |
| 2026-04-21 10:11 | 51.58992 | 7.53529 | 2286 ft | 195 kts | 180° |
| 2026-04-21 10:12 | 51.57696 | 7.53882 | 2283 ft | 188 kts | 148° |
| 2026-04-21 10:12 | 51.56648 | 7.55126 | 2281 ft | 187 kts | 139° |
| 2026-04-21 10:12 | 51.55629 | 7.56426 | 2287 ft | 188 kts | 136° |
| 2026-04-21 10:12 | 51.54605 | 7.57718 | 2288 ft | 186 kts | 137° |
| 2026-04-21 10:13 | 51.53771 | 7.58988 | 2272 ft | 145 kts | 115° |
| 2026-04-21 10:13 | 51.53854 | 7.60388 | 2014 ft | 127 kts | 66° |
| 2026-04-21 10:13 | 51.54395 | 7.61565 | 1410 ft | 134 kts | 40° |
| 2026-04-21 10:13 | 51.54014 | 7.61943 | 1199 ft | 142 kts | 227° |
| 2026-04-21 10:14 | 51.53574 | 7.60604 | 1105 ft | 126 kts | 240° |
| 2026-04-21 10:14 | 51.53122 | 7.59432 | 1021 ft | 119 kts | 238° |
| 2026-04-21 10:14 | 51.52658 | 7.58366 | 985 ft | 115 kts | 220° |
| 2026-04-21 10:14 | 51.51959 | 7.57884 | 997 ft | 103 kts | 176° |
| 2026-04-21 10:15 | 51.51278 | 7.58201 | 901 ft | 103 kts | 150° |
| 2026-04-21 10:15 | 51.51097 | 7.59099 | 691 ft | 98 kts | 65° |
| 2026-04-21 10:15 | 51.51421 | 7.60027 | 537 ft | 88 kts | 62° |
| 2026-04-21 10:15 | 51.51676 | 7.60763 | 427 ft | 62 kts | 62° |
| 2026-04-21 10:16 | 51.51843 | 7.61263 | 414 ft | 51 kts | 62° |
| 2026-04-21 10:16 | 51.52069 | 7.61864 | 656 ft | 60 kts | 57° |
| 2026-04-21 10:16 | 51.52342 | 7.62579 | 894 ft | 85 kts | 58° |
| 2026-04-21 10:16 | 51.52720 | 7.63460 | 1153 ft | 109 kts | 55° |
| 2026-04-21 10:17 | 51.53400 | 7.64014 | 1440 ft | 130 kts | 351° |
| 2026-04-21 10:17 | 51.54272 | 7.63132 | 1508 ft | 157 kts | 323° |
| 2026-04-21 10:17 | 51.55044 | 7.61967 | 2066 ft | 141 kts | 321° |
| 2026-04-21 10:17 | 51.54820 | 7.60771 | 2515 ft | 141 kts | 185° |
| 2026-04-21 10:18 | 51.53913 | 7.60699 | 2926 ft | 145 kts | 171° |
| 2026-04-21 10:18 | 51.52804 | 7.60926 | 2976 ft | 165 kts | 166° |
| 2026-04-21 10:18 | 51.51688 | 7.61244 | 3350 ft | 162 kts | 161° |
| 2026-04-21 10:18 | 51.50612 | 7.61839 | 3596 ft | 164 kts | 148° |
| 2026-04-21 10:19 | 51.49743 | 7.62978 | 3855 ft | 160 kts | 123° |
| 2026-04-21 10:19 | 51.49361 | 7.64630 | 4065 ft | 159 kts | 97° |
| 2026-04-21 10:19 | 51.48760 | 7.66152 | 4019 ft | 182 kts | 142° |
| 2026-04-21 10:19 | 51.47546 | 7.66895 | 4027 ft | 190 kts | 156° |
| 2026-04-21 10:20 | 51.46317 | 7.67592 | 4245 ft | 180 kts | 156° |
| 2026-04-21 10:20 | 51.45206 | 7.68180 | 4913 ft | 156 kts | 156° |
| 2026-04-21 10:20 | 51.44251 | 7.68672 | 5643 ft | 136 kts | 156° |
| 2026-04-21 10:20 | 51.43352 | 7.69125 | 6141 ft | 136 kts | 156° |
| 2026-04-21 10:21 | 51.42450 | 7.69586 | 6628 ft | 136 kts | 156° |
| 2026-04-21 10:21 | 51.41547 | 7.70057 | 7079 ft | 136 kts | 154° |
| 2026-04-21 10:21 | 51.40662 | 7.70608 | 7511 ft | 137 kts | 152° |
| 2026-04-21 10:21 | 51.39769 | 7.71161 | 7962 ft | 138 kts | 152° |
| 2026-04-21 10:22 | 51.38867 | 7.71712 | 8407 ft | 139 kts | 152° |
| 2026-04-21 10:22 | 51.37956 | 7.72270 | 8865 ft | 141 kts | 152° |
| 2026-04-21 10:22 | 51.37035 | 7.72821 | 9334 ft | 142 kts | 152° |
| 2026-04-21 10:22 | 51.36052 | 7.73413 | 9484 ft | 164 kts | 152° |
| 2026-04-21 10:23 | 51.34922 | 7.74119 | 9490 ft | 184 kts | 152° |
| 2026-04-21 10:23 | 51.33696 | 7.74899 | 9488 ft | 194 kts | 152° |
| 2026-04-21 10:23 | 51.32426 | 7.75713 | 9474 ft | 199 kts | 152° |
| 2026-04-21 10:23 | 51.31129 | 7.76551 | 9468 ft | 203 kts | 152° |
| 2026-04-21 10:24 | 51.29817 | 7.77422 | 9467 ft | 205 kts | 152° |
| 2026-04-21 10:24 | 51.28494 | 7.78307 | 9466 ft | 207 kts | 152° |
| 2026-04-21 10:24 | 51.27168 | 7.79200 | 9464 ft | 207 kts | 152° |
| 2026-04-21 10:24 | 51.25846 | 7.80099 | 9460 ft | 206 kts | 152° |
| 2026-04-21 10:25 | 51.24521 | 7.80998 | 9461 ft | 207 kts | 152° |
| 2026-04-21 10:25 | 51.23192 | 7.81895 | 9464 ft | 208 kts | 152° |
| 2026-04-21 10:25 | 51.21861 | 7.82788 | 9460 ft | 207 kts | 153° |
| 2026-04-21 10:25 | 51.20533 | 7.83685 | 9460 ft | 208 kts | 152° |
| 2026-04-21 10:26 | 51.19202 | 7.84582 | 9462 ft | 208 kts | 152° |
| 2026-04-21 10:26 | 51.17867 | 7.85474 | 9459 ft | 208 kts | 152° |
| 2026-04-21 10:26 | 51.16535 | 7.86369 | 9450 ft | 208 kts | 152° |
| 2026-04-21 10:26 | 51.15204 | 7.87265 | 9450 ft | 207 kts | 152° |
| 2026-04-21 10:27 | 51.13873 | 7.88156 | 9450 ft | 207 kts | 152° |
| 2026-04-21 10:27 | 51.12545 | 7.89045 | 9450 ft | 207 kts | 152° |
| 2026-04-21 10:27 | 51.11217 | 7.89935 | 9451 ft | 207 kts | 152° |
| 2026-04-21 10:27 | 51.09887 | 7.90824 | 9451 ft | 208 kts | 152° |
| 2026-04-21 10:28 | 51.08555 | 7.91714 | 9448 ft | 208 kts | 152° |
| 2026-04-21 10:28 | 51.07221 | 7.92601 | 9451 ft | 208 kts | 152° |
| 2026-04-21 10:28 | 51.05886 | 7.93492 | 9435 ft | 208 kts | 152° |
| 2026-04-21 10:28 | 51.04550 | 7.94386 | 9441 ft | 209 kts | 152° |
| 2026-04-21 10:29 | 51.03225 | 7.95270 | 9437 ft | 209 kts | 152° |
| 2026-04-21 10:29 | 51.01885 | 7.96172 | 9441 ft | 209 kts | 152° |
| 2026-04-21 10:29 | 51.00549 | 7.97080 | 9439 ft | 209 kts | 152° |
| 2026-04-21 10:29 | 50.99213 | 7.97987 | 9432 ft | 209 kts | 153° |
| 2026-04-21 10:30 | 50.97878 | 7.98891 | 9431 ft | 208 kts | 152° |
| 2026-04-21 10:30 | 50.96542 | 7.99786 | 9430 ft | 209 kts | 152° |
| 2026-04-21 10:30 | 50.95199 | 8.00676 | 9429 ft | 209 kts | 152° |
| 2026-04-21 10:30 | 50.93858 | 8.01566 | 9422 ft | 208 kts | 152° |
| 2026-04-21 10:31 | 50.92524 | 8.02454 | 9427 ft | 207 kts | 151° |
| 2026-04-21 10:31 | 50.91190 | 8.03318 | 9428 ft | 207 kts | 152° |
| 2026-04-21 10:31 | 50.89857 | 8.04180 | 9420 ft | 207 kts | 152° |
| 2026-04-21 10:31 | 50.88560 | 8.05136 | 9423 ft | 205 kts | 148° |
| 2026-04-21 10:32 | 50.87282 | 8.06138 | 9414 ft | 205 kts | 148° |
| 2026-04-21 10:32 | 50.86006 | 8.07143 | 9422 ft | 205 kts | 148° |
| 2026-04-21 10:32 | 50.84725 | 8.08151 | 9421 ft | 206 kts | 148° |
| 2026-04-21 10:32 | 50.83444 | 8.09159 | 9420 ft | 206 kts | 148° |
| 2026-04-21 10:33 | 50.82162 | 8.10165 | 9419 ft | 205 kts | 148° |
| 2026-04-21 10:33 | 50.80881 | 8.11159 | 9412 ft | 205 kts | 148° |
| 2026-04-21 10:33 | 50.79603 | 8.12155 | 9412 ft | 205 kts | 148° |
| 2026-04-21 10:33 | 50.78329 | 8.13151 | 9416 ft | 204 kts | 148° |
| 2026-04-21 10:34 | 50.77050 | 8.14142 | 9416 ft | 205 kts | 148° |
| 2026-04-21 10:34 | 50.75770 | 8.15132 | 9415 ft | 205 kts | 148° |
| 2026-04-21 10:34 | 50.74489 | 8.16118 | 9415 ft | 205 kts | 148° |
| 2026-04-21 10:34 | 50.73209 | 8.17107 | 9415 ft | 205 kts | 148° |
| 2026-04-21 10:35 | 50.71927 | 8.18099 | 9411 ft | 205 kts | 148° |
| 2026-04-21 10:35 | 50.70648 | 8.19097 | 9413 ft | 205 kts | 148° |
| 2026-04-21 10:35 | 50.69366 | 8.20091 | 9416 ft | 205 kts | 148° |
| 2026-04-21 10:35 | 50.68075 | 8.21064 | 9413 ft | 206 kts | 150° |
| 2026-04-21 10:36 | 50.66771 | 8.21996 | 9417 ft | 206 kts | 150° |
| 2026-04-21 10:36 | 50.65467 | 8.22920 | 9413 ft | 205 kts | 150° |
| 2026-04-21 10:36 | 50.64161 | 8.23837 | 9418 ft | 206 kts | 150° |
| 2026-04-21 10:36 | 50.62856 | 8.24752 | 9418 ft | 205 kts | 150° |
| 2026-04-21 10:37 | 50.61550 | 8.25663 | 9432 ft | 205 kts | 150° |
| 2026-04-21 10:37 | 50.60245 | 8.26577 | 9430 ft | 206 kts | 150° |
| 2026-04-21 10:37 | 50.58935 | 8.27495 | 9436 ft | 206 kts | 150° |
| 2026-04-21 10:37 | 50.57617 | 8.28422 | 9297 ft | 212 kts | 150° |
| 2026-04-21 10:38 | 50.56212 | 8.29442 | 8600 ft | 231 kts | 150° |
| 2026-04-21 10:38 | 50.54753 | 8.30515 | 8181 ft | 230 kts | 150° |
| 2026-04-21 10:38 | 50.53308 | 8.31582 | 7774 ft | 229 kts | 150° |
| 2026-04-21 10:38 | 50.51873 | 8.32641 | 7365 ft | 227 kts | 150° |
| 2026-04-21 10:39 | 50.50452 | 8.33703 | 6962 ft | 226 kts | 150° |
| 2026-04-21 10:39 | 50.49041 | 8.34757 | 6576 ft | 223 kts | 150° |
| 2026-04-21 10:39 | 50.47638 | 8.35795 | 6149 ft | 222 kts | 150° |
| 2026-04-21 10:39 | 50.46245 | 8.36829 | 5725 ft | 220 kts | 150° |
| 2026-04-21 10:40 | 50.44862 | 8.37845 | 5298 ft | 219 kts | 150° |
| 2026-04-21 10:40 | 50.43530 | 8.38832 | 5232 ft | 204 kts | 150° |
| 2026-04-21 10:40 | 50.42278 | 8.39751 | 5220 ft | 194 kts | 150° |
| 2026-04-21 10:40 | 50.41059 | 8.40622 | 5218 ft | 191 kts | 150° |
| 2026-04-21 10:41 | 50.39856 | 8.41485 | 5217 ft | 190 kts | 150° |
| 2026-04-21 10:41 | 50.38648 | 8.42352 | 5213 ft | 192 kts | 150° |
| 2026-04-21 10:41 | 50.37427 | 8.43232 | 5219 ft | 195 kts | 150° |
| 2026-04-21 10:41 | 50.36194 | 8.44124 | 5219 ft | 195 kts | 150° |
| 2026-04-21 10:42 | 50.34959 | 8.45023 | 5222 ft | 196 kts | 150° |
| 2026-04-21 10:42 | 50.33720 | 8.45922 | 5227 ft | 196 kts | 150° |
| 2026-04-21 10:42 | 50.32480 | 8.46801 | 5184 ft | 197 kts | 150° |
| 2026-04-21 10:42 | 50.31222 | 8.47688 | 5000 ft | 204 kts | 150° |
| 2026-04-21 10:43 | 50.29880 | 8.48654 | 4439 ft | 217 kts | 150° |
| 2026-04-21 10:43 | 50.28507 | 8.49621 | 4216 ft | 212 kts | 150° |
| 2026-04-21 10:43 | 50.27191 | 8.50524 | 4214 ft | 203 kts | 150° |
| 2026-04-21 10:43 | 50.25952 | 8.51355 | 4205 ft | 178 kts | 150° |
| 2026-04-21 10:44 | 50.24808 | 8.52105 | 3499 ft | 187 kts | 150° |
| 2026-04-21 10:44 | 50.23623 | 8.52911 | 3214 ft | 176 kts | 150° |
| 2026-04-21 10:44 | 50.22535 | 8.53638 | 3203 ft | 166 kts | 151° |
| 2026-04-21 10:44 | 50.21526 | 8.54323 | 3201 ft | 153 kts | 150° |
| 2026-04-21 10:45 | 50.20873 | 8.54742 | 3199 ft | 147 kts | 150° |
| 2026-04-21 10:45 | 50.19633 | 8.55523 | 3199 ft | 143 kts | 150° |
| 2026-04-21 10:45 | 50.18730 | 8.56086 | 3280 ft | 138 kts | 150° |
| 2026-04-21 10:45 | 50.18115 | 8.56475 | 3281 ft | 143 kts | 150° |
| 2026-04-21 10:46 | 50.17186 | 8.57073 | 3279 ft | 142 kts | 150° |
| 2026-04-21 10:46 | 50.16052 | 8.57754 | 3283 ft | 124 kts | 150° |
| 2026-04-21 10:46 | 50.15514 | 8.58049 | 3280 ft | 117 kts | 150° |
| 2026-04-21 10:46 | 50.14518 | 8.58591 | 3281 ft | 117 kts | 149° |
| 2026-04-21 10:47 | 50.13984 | 8.58872 | 3283 ft | 123 kts | 157° |
| 2026-04-21 10:47 | 50.13112 | 8.58475 | 3283 ft | 148 kts | 219° |
| 2026-04-21 10:47 | 50.12445 | 8.57198 | 3301 ft | 154 kts | 229° |
| 2026-04-21 10:47 | 50.11752 | 8.55841 | 3301 ft | 167 kts | 230° |
| 2026-04-21 10:48 | 50.11002 | 8.54390 | 3302 ft | 176 kts | 229° |
| 2026-04-21 10:48 | 50.10229 | 8.52867 | 3217 ft | 180 kts | 229° |
| 2026-04-21 10:48 | 50.09378 | 8.51211 | 2761 ft | 210 kts | 230° |
| 2026-04-21 10:48 | 50.08398 | 8.49375 | 2316 ft | 229 kts | 229° |
| 2026-04-21 10:49 | 50.07371 | 8.47461 | 2135 ft | 230 kts | 230° |
| 2026-04-21 10:49 | 50.06339 | 8.45621 | 1816 ft | 218 kts | 222° |
| 2026-04-21 10:49 | 50.05082 | 8.45395 | 1931 ft | 178 kts | 147° |
| 2026-04-21 10:49 | 50.03999 | 8.46399 | 1395 ft | 177 kts | 151° |
| 2026-04-21 10:50 | 50.02916 | 8.47106 | 1181 ft | 161 kts | 154° |
| 2026-04-21 10:50 | 50.01944 | 8.47723 | 1135 ft | 137 kts | 140° |
| 2026-04-21 10:50 | 50.01675 | 8.48880 | 1077 ft | 112 kts | 79° |
| 2026-04-21 10:50 | 50.01918 | 8.50045 | 820 ft | 117 kts | 64° |
| 2026-04-21 10:51 | 50.02201 | 8.51186 | 753 ft | 110 kts | 63° |
| 2026-04-21 10:51 | 50.02481 | 8.52363 | 404 ft | 118 kts | 68° |
| 2026-04-21 10:51 | 50.02772 | 8.53504 | 356 ft | 112 kts | 62° |
| 2026-04-21 10:51 | 50.03006 | 8.54472 | 330 ft | 74 kts | 64° |
| 2026-04-21 10:52 | 50.03163 | 8.55105 | 353 ft | 70 kts | 70° |
| 2026-04-21 10:52 | 50.03357 | 8.55994 | 420 ft | 101 kts | 62° |
| 2026-04-21 10:52 | 50.03631 | 8.57089 | 522 ft | 116 kts | 63° |
| 2026-04-21 10:52 | 50.03888 | 8.58248 | 837 ft | 109 kts | 67° |
| 2026-04-21 10:53 | 50.04095 | 8.59343 | 1285 ft | 101 kts | 83° |
| 2026-04-21 10:53 | 50.03649 | 8.60241 | 1445 ft | 130 kts | 152° |
| 2026-04-21 10:53 | 50.02719 | 8.60399 | 1644 ft | 141 kts | 178° |
| 2026-04-21 10:53 | 50.01729 | 8.60295 | 1793 ft | 143 kts | 174° |
| 2026-04-21 10:54 | 50.00731 | 8.60370 | 1898 ft | 148 kts | 174° |
| 2026-04-21 10:54 | 49.99713 | 8.60352 | 2063 ft | 145 kts | 178° |
| 2026-04-21 10:54 | 49.98718 | 8.60299 | 2285 ft | 140 kts | 178° |
| 2026-04-21 10:54 | 49.97830 | 8.60470 | 2642 ft | 117 kts | 133° |
| 2026-04-21 10:55 | 49.97556 | 8.61592 | 2727 ft | 121 kts | 93° |
| 2026-04-21 10:55 | 49.97445 | 8.62955 | 2784 ft | 125 kts | 95° |
| 2026-04-21 10:55 | 49.97248 | 8.64304 | 2782 ft | 136 kts | 104° |
| 2026-04-21 10:55 | 49.96947 | 8.65706 | 2773 ft | 137 kts | 103° |
| 2026-04-21 10:56 | 49.96648 | 8.67114 | 2771 ft | 138 kts | 103° |
| 2026-04-21 10:56 | 49.96358 | 8.68535 | 2775 ft | 139 kts | 103° |
| 2026-04-21 10:56 | 49.96058 | 8.69966 | 2771 ft | 140 kts | 103° |
| 2026-04-21 10:56 | 49.95765 | 8.71412 | 2771 ft | 140 kts | 104° |
| 2026-04-21 10:57 | 49.95471 | 8.72854 | 2770 ft | 140 kts | 104° |
| 2026-04-21 10:57 | 49.95181 | 8.74284 | 2768 ft | 138 kts | 104° |
| 2026-04-21 10:57 | 49.94884 | 8.75699 | 2769 ft | 138 kts | 103° |
| 2026-04-21 10:57 | 49.94570 | 8.77226 | 2770 ft | 158 kts | 103° |
| 2026-04-21 10:58 | 49.94228 | 8.78932 | 2779 ft | 171 kts | 103° |
| 2026-04-21 10:58 | 49.93875 | 8.80741 | 2781 ft | 178 kts | 103° |
| 2026-04-21 10:58 | 49.93512 | 8.82594 | 2779 ft | 180 kts | 104° |
| 2026-04-21 10:58 | 49.93159 | 8.84390 | 3135 ft | 162 kts | 103° |
| 2026-04-21 10:59 | 49.92836 | 8.85932 | 3802 ft | 138 kts | 103° |
| 2026-04-21 10:59 | 49.92578 | 8.87236 | 4537 ft | 118 kts | 103° |
| 2026-04-21 10:59 | 49.92335 | 8.88457 | 5040 ft | 120 kts | 103° |
| 2026-04-21 10:59 | 49.92090 | 8.89693 | 5507 ft | 120 kts | 103° |
| 2026-04-21 11:00 | 49.91841 | 8.90932 | 5976 ft | 121 kts | 103° |
| 2026-04-21 11:00 | 49.91587 | 8.92186 | 6450 ft | 121 kts | 103° |
| 2026-04-21 11:00 | 49.91334 | 8.93436 | 6894 ft | 122 kts | 103° |
| 2026-04-21 11:00 | 49.91081 | 8.94682 | 7323 ft | 123 kts | 103° |
| 2026-04-21 11:01 | 49.90819 | 8.95960 | 7755 ft | 125 kts | 103° |
| 2026-04-21 11:01 | 49.90549 | 8.97267 | 8219 ft | 127 kts | 103° |
| 2026-04-21 11:01 | 49.90274 | 8.98572 | 8659 ft | 128 kts | 103° |
| 2026-04-21 11:02 | 49.89705 | 9.01218 | 9471 ft | 141 kts | 104° |
| 2026-04-21 11:02 | 49.89381 | 9.02804 | 9484 ft | 166 kts | 103° |
| 2026-04-21 11:02 | 49.89022 | 9.04597 | 9484 ft | 180 kts | 103° |
| 2026-04-21 11:02 | 49.88646 | 9.06495 | 9485 ft | 187 kts | 103° |
| 2026-04-21 11:03 | 49.88263 | 9.08447 | 9481 ft | 191 kts | 103° |
| 2026-04-21 11:03 | 49.87875 | 9.10428 | 9467 ft | 193 kts | 103° |
| 2026-04-21 11:03 | 49.87478 | 9.12429 | 9471 ft | 195 kts | 103° |
| 2026-04-21 11:03 | 49.86877 | 9.14304 | 9459 ft | 201 kts | 128° |
| 2026-04-21 11:04 | 49.85665 | 9.15463 | 9461 ft | 209 kts | 150° |
| 2026-04-21 11:04 | 49.84320 | 9.16392 | 9463 ft | 209 kts | 151° |
| 2026-04-21 11:04 | 49.82985 | 9.17285 | 9476 ft | 209 kts | 152° |
| 2026-04-21 11:04 | 49.81649 | 9.18179 | 9474 ft | 209 kts | 151° |
| 2026-04-21 11:05 | 49.80328 | 9.19061 | 9472 ft | 210 kts | 152° |
| 2026-04-21 11:05 | 49.78969 | 9.19978 | 9471 ft | 210 kts | 152° |
| 2026-04-21 11:05 | 49.77632 | 9.20895 | 9466 ft | 210 kts | 152° |
| 2026-04-21 11:05 | 49.76317 | 9.21793 | 9468 ft | 209 kts | 152° |
| 2026-04-21 11:06 | 49.74985 | 9.22706 | 9473 ft | 210 kts | 151° |
| 2026-04-21 11:06 | 49.73641 | 9.23610 | 9469 ft | 211 kts | 152° |
| 2026-04-21 11:06 | 49.72294 | 9.24503 | 9468 ft | 211 kts | 152° |
| 2026-04-21 11:06 | 49.70949 | 9.25398 | 9469 ft | 210 kts | 152° |
| 2026-04-21 11:07 | 49.69606 | 9.26292 | 9469 ft | 210 kts | 152° |
| 2026-04-21 11:07 | 49.68261 | 9.27189 | 9466 ft | 211 kts | 152° |
| 2026-04-21 11:07 | 49.66923 | 9.28101 | 9464 ft | 210 kts | 152° |
| 2026-04-21 11:07 | 49.65600 | 9.29046 | 9467 ft | 209 kts | 148° |
| 2026-04-21 11:08 | 49.64313 | 9.30083 | 9469 ft | 209 kts | 148° |
| 2026-04-21 11:08 | 49.63022 | 9.31136 | 9470 ft | 210 kts | 147° |
| 2026-04-21 11:08 | 49.61726 | 9.32189 | 9463 ft | 210 kts | 147° |
| 2026-04-21 11:08 | 49.60437 | 9.33234 | 9470 ft | 210 kts | 148° |
| 2026-04-21 11:09 | 49.59141 | 9.34278 | 9474 ft | 210 kts | 148° |
| 2026-04-21 11:09 | 49.57849 | 9.35343 | 9471 ft | 210 kts | 147° |
| 2026-04-21 11:09 | 49.56550 | 9.36392 | 9468 ft | 211 kts | 148° |
| 2026-04-21 11:09 | 49.55255 | 9.37438 | 9467 ft | 210 kts | 147° |
| 2026-04-21 11:10 | 49.53961 | 9.38477 | 9466 ft | 209 kts | 148° |
| 2026-04-21 11:10 | 49.52679 | 9.39531 | 9465 ft | 209 kts | 148° |
| 2026-04-21 11:10 | 49.51401 | 9.40587 | 9466 ft | 209 kts | 147° |
| 2026-04-21 11:10 | 49.50115 | 9.41629 | 9466 ft | 209 kts | 148° |
| 2026-04-21 11:11 | 49.48829 | 9.42672 | 9464 ft | 209 kts | 148° |
| 2026-04-21 11:11 | 49.47544 | 9.43722 | 9466 ft | 210 kts | 148° |
| 2026-04-21 11:11 | 49.46256 | 9.44771 | 9465 ft | 209 kts | 148° |
| 2026-04-21 11:11 | 49.44972 | 9.45816 | 9465 ft | 209 kts | 148° |
| 2026-04-21 11:12 | 49.43716 | 9.46924 | 9462 ft | 207 kts | 143° |
| 2026-04-21 11:12 | 49.42499 | 9.48116 | 9463 ft | 208 kts | 143° |
| 2026-04-21 11:12 | 49.41288 | 9.49327 | 9462 ft | 208 kts | 143° |
| 2026-04-21 11:12 | 49.40080 | 9.50540 | 9463 ft | 208 kts | 143° |
| 2026-04-21 11:13 | 49.38868 | 9.51748 | 9459 ft | 208 kts | 142° |
| 2026-04-21 11:13 | 49.37654 | 9.52953 | 9460 ft | 208 kts | 142° |
| 2026-04-21 11:13 | 49.36441 | 9.54161 | 9460 ft | 208 kts | 143° |
| 2026-04-21 11:13 | 49.35230 | 9.55377 | 9460 ft | 208 kts | 143° |
| 2026-04-21 11:14 | 49.34023 | 9.56593 | 9463 ft | 207 kts | 142° |
| 2026-04-21 11:14 | 49.32819 | 9.57809 | 9465 ft | 207 kts | 142° |
| 2026-04-21 11:14 | 49.31616 | 9.59026 | 9464 ft | 206 kts | 143° |
| 2026-04-21 11:14 | 49.30434 | 9.60209 | 9459 ft | 202 kts | 143° |
| 2026-04-21 11:15 | 49.29261 | 9.61385 | 9456 ft | 201 kts | 143° |
| 2026-04-21 11:15 | 49.28094 | 9.62560 | 9454 ft | 201 kts | 142° |
| 2026-04-21 11:15 | 49.26946 | 9.63708 | 9450 ft | 185 kts | 143° |
| 2026-04-21 11:15 | 49.25951 | 9.64679 | 9442 ft | 157 kts | 143° |
| 2026-04-21 11:16 | 49.25081 | 9.65501 | 9444 ft | 141 kts | 142° |
| 2026-04-21 11:16 | 49.24262 | 9.66269 | 9445 ft | 136 kts | 142° |
| 2026-04-21 11:16 | 49.23464 | 9.67009 | 9445 ft | 132 kts | 142° |
| 2026-04-21 11:16 | 49.22718 | 9.67688 | 9448 ft | 117 kts | 143° |
| 2026-04-21 11:17 | 49.22039 | 9.68296 | 9449 ft | 117 kts | 142° |
| 2026-04-21 11:17 | 49.21333 | 9.68925 | 9454 ft | 116 kts | 142° |
| 2026-04-21 11:17 | 49.20554 | 9.69636 | 8937 ft | 154 kts | 142° |
| 2026-04-21 11:17 | 49.19693 | 9.70602 | 7849 ft | 144 kts | 136° |
| 2026-04-21 11:18 | 49.18841 | 9.71654 | 5717 ft | 163 kts | 133° |
| 2026-04-21 11:18 | 49.18689 | 9.73108 | 3488 ft | 155 kts | 52° |
| 2026-04-21 11:18 | 49.19631 | 9.72860 | 2420 ft | 147 kts | 314° |
| 2026-04-21 11:18 | 49.19885 | 9.71530 | 2592 ft | 129 kts | 287° |
| 2026-04-21 11:19 | 49.20021 | 9.70146 | 2610 ft | 130 kts | 260° |
| 2026-04-21 11:19 | 49.19522 | 9.69096 | 2649 ft | 127 kts | 203° |
| 2026-04-21 11:19 | 49.18698 | 9.68978 | 2788 ft | 111 kts | 163° |
| 2026-04-21 11:19 | 49.17960 | 9.69382 | 2754 ft | 117 kts | 146° |
| 2026-04-21 11:20 | 49.17306 | 9.70090 | 2761 ft | 117 kts | 134° |
| 2026-04-21 11:20 | 49.16623 | 9.70913 | 2884 ft | 133 kts | 140° |
| 2026-04-21 11:20 | 49.15826 | 9.71695 | 3147 ft | 131 kts | 146° |
| 2026-04-21 11:20 | 49.14999 | 9.72134 | 3047 ft | 126 kts | 162° |
| 2026-04-21 11:21 | 49.14219 | 9.72165 | 3098 ft | 92 kts | 179° |
| 2026-04-21 11:21 | 49.13594 | 9.72092 | 2819 ft | 88 kts | 176° |
| 2026-04-21 11:21 | 49.12985 | 9.71990 | 2506 ft | 89 kts | 179° |
| 2026-04-21 11:21 | 49.12389 | 9.72114 | 2133 ft | 91 kts | 136° |
| 2026-04-21 11:22 | 49.12212 | 9.72960 | 1898 ft | 89 kts | 88° |
| 2026-04-21 11:22 | 49.12201 | 9.73913 | 1745 ft | 88 kts | 88° |
| 2026-04-21 11:22 | 49.12152 | 9.74834 | 1615 ft | 87 kts | 91° |
| 2026-04-21 11:22 | 49.12073 | 9.75748 | 1544 ft | 86 kts | 88° |
| 2026-04-21 11:23 | 49.12010 | 9.76541 | 1453 ft | 68 kts | 91° |
| 2026-04-21 11:23 | 49.11949 | 9.77263 | 1327 ft | 69 kts | 93° |
| 2026-04-21 11:23 | 49.11878 | 9.77936 | 1308 ft | 58 kts | 91° |
| 2026-04-21 11:23 | 49.11845 | 9.78354 | 1309 ft | 27 kts | 81° |
| 2026-04-21 11:24 | 49.11812 | 9.78610 | 1312 ft | 24 kts | 103° |
| 2026-04-21 11:24 | 49.11787 | 9.78852 | 1312 ft | 26 kts | 97° |
| 2026-04-21 11:24 | 49.11754 | 9.79173 | 1314 ft | 25 kts | 94° |
| 2026-04-21 11:24 | 49.11845 | 9.79235 | 1314 ft | 18 kts | 348° |
| 2026-04-21 11:25 | 49.11878 | 9.79049 | 1314 ft | 21 kts | 282° |
| 2026-04-21 11:25 | 49.11903 | 9.78813 | 1313 ft | 26 kts | 281° |
| 2026-04-21 11:25 | 49.11930 | 9.78537 | 1311 ft | 26 kts | 290° |
| 2026-04-21 11:25 | 49.11954 | 9.78284 | 1310 ft | 23 kts | 284° |
| 2026-04-21 11:26 | 49.11987 | 9.77967 | 1309 ft | 32 kts | 275° |
| 2026-04-21 11:26 | 49.12019 | 9.77930 | 1309 ft | 0 kts | 5° |